CST,Max TemperatureF,Mean TemperatureF,Min TemperatureF,Max Dew PointF,MeanDew PointF,Min DewpointF,Max Humidity, Mean Humidity, Min Humidity, Max Sea Level PressureIn, Mean Sea Level PressureIn, Min Sea Level PressureIn, Max VisibilityMiles, Mean VisibilityMiles, Min VisibilityMiles, Max Wind SpeedMPH, Mean Wind SpeedMPH, Max Gust SpeedMPH,PrecipitationIn, CloudCover, Events, WindDirDegrees
2013-1-1,17,10,3,8,3,-1,87,74,61,30.33,30.27,30.22,10,9,6,14,6,15,0.00,0,,304
2013-1-2,31,18,4,22,14,1,86,75,63,30.24,30.14,30.08,10,8,6,14,8,17,0.00,3,,220
2013-1-3,28,19,10,25,17,6,85,78,71,30.38,30.26,30.11,10,7,5,23,12,29,T,6,,274
2013-1-4,33,22,10,24,16,6,85,77,66,30.33,30.27,30.22,10,8,5,20,12,,0.00,0,,231
2013-1-5,36,26,16,32,27,15,92,81,69,30.24,30.06,29.95,10,7,3,26,13,31,T,5,Rain-Snow,212
2013-1-6,28,21,13,21,15,10,91,80,68,30.36,30.21,30.01,10,7,2,23,12,29,0.00,3,,284
2013-1-7,39,27,14,26,21,11,88,69,50,30.32,30.18,30.09,10,9,7,23,12,30,0.00,0,,187
2013-1-8,42,35,27,31,27,22,84,73,62,30.12,30.06,29.99,10,9,7,22,12,26,0.00,1,,179
2013-1-9,43,35,26,33,29,24,92,79,65,30.50,30.36,30.10,10,9,5,20,9,24,0.00,0,,260
2013-1-10,40,32,24,37,31,22,100,80,59,30.48,30.10,29.80,10,5,0,24,11,32,0.40,5,Fog-Rain,115
2013-1-11,54,46,37,47,43,37,100,86,71,29.79,29.69,29.61,10,4,0,29,14,36,0.01,3,Fog,186
2013-1-12,52,36,20,44,23,17,89,79,68,30.07,29.95,29.65,10,6,1,32,15,38,0.05,6,Snow,300
2013-1-13,20,14,7,16,8,3,91,79,67,30.33,30.13,29.96,10,9,3,24,14,28,T,5,Snow,299
2013-1-14,24,15,5,11,6,2,83,69,55,30.53,30.47,30.34,10,10,10,10,5,13,0.00,0,,249
2013-1-15,29,19,8,15,10,5,83,65,46,30.46,30.35,30.16,10,9,5,10,4,13,0.00,0,,199
2013-1-16,37,26,15,32,21,8,89,73,56,30.13,30.00,29.86,10,10,8,23,12,29,T,5,,236
2013-1-17,35,27,18,28,17,10,85,67,49,30.45,30.35,30.16,10,10,8,18,9,24,0.00,1,,309
2013-1-18,47,35,22,32,26,18,81,67,53,30.43,30.13,29.92,10,10,8,33,17,40,0.00,1,,196
2013-1-19,50,35,20,36,29,9,76,66,55,30.15,29.91,29.79,10,10,10,39,18,53,0.00,0,,247
2013-1-20,20,15,10,9,6,2,80,68,56,30.40,30.32,30.17,10,8,2,30,15,37,T,5,Snow,302
2013-1-21,13,7,1,6,-2,-10,80,65,49,30.39,30.30,30.22,10,8,2,29,18,37,T,3,Snow,294
2013-1-22,13,5,-3,1,-4,-9,79,64,48,30.47,30.42,30.38,10,10,9,18,10,22,T,3,,278
2013-1-23,29,20,10,12,5,-1,67,57,46,30.48,30.28,30.15,10,10,10,29,12,37,T,5,,264
2013-1-24,21,13,4,7,-1,-7,69,56,42,30.70,30.54,30.30,10,10,10,21,10,24,0.00,0,,82
2013-1-25,36,25,13,20,13,5,77,61,44,30.30,30.14,30.02,10,8,2,28,14,33,0.01,4,Snow,235
2013-1-26,29,17,4,13,7,0,83,63,42,30.44,30.36,30.29,10,10,8,16,7,20,0.00,1,,109
2013-1-27,44,36,28,42,28,14,100,75,50,30.31,30.03,29.82,10,3,1,29,15,33,0.27,7,Rain-Thunderstorm,145
2013-1-28,49,43,37,48,41,36,100,96,92,29.97,29.87,29.70,4,2,0,20,10,25,0.07,8,Fog-Rain,160
2013-1-29,61,48,35,57,46,34,100,92,84,29.68,29.56,29.47,9,4,1,24,13,36,0.74,7,Rain-Thunderstorm,290
2013-1-30,35,25,14,34,23,9,100,87,73,29.80,29.48,29.31,10,3,0,30,19,38,0.32,7,Fog-Rain-Snow,321
2013-1-31,17,9,0,11,1,-8,87,78,69,30.34,30.04,29.76,10,5,0,30,22,37,0.01,6,Rain-Snow,290